sensor_id;sensor_type;location;lat;lon;timestamp;P1;durP1;ratioP1;P2;durP2;ratioP2
39612;SDS011;25303;48.896;13.342;2024-03-08T00:01:08;16.83;;;7.85;;
39612;SDS011;25303;48.896;13.342;2024-03-08T00:11:12;17.98;;;8.30;;
39612;SDS011;25303;48.896;13.342;2024-03-08T00:21:15;17.70;;;7.38;;
39612;SDS011;25303;48.896;13.342;2024-03-08T00:31:20;15.88;;;7.43;;
39612;SDS011;25303;48.896;13.342;2024-03-08T00:41:23;17.67;;;7.75;;
39612;SDS011;25303;48.896;13.342;2024-03-08T00:51:29;17.92;;;7.65;;
39612;SDS011;25303;48.896;13.342;2024-03-08T01:01:32;15.27;;;6.93;;
39612;SDS011;25303;48.896;13.342;2024-03-08T01:11:36;19.85;;;9.48;;
39612;SDS011;25303;48.896;13.342;2024-03-08T01:21:40;17.85;;;7.60;;
39612;SDS011;25303;48.896;13.342;2024-03-08T01:31:44;16.15;;;6.72;;
39612;SDS011;25303;48.896;13.342;2024-03-08T01:41:47;16.10;;;7.13;;
39612;SDS011;25303;48.896;13.342;2024-03-08T01:51:51;21.08;;;8.35;;
39612;SDS011;25303;48.896;13.342;2024-03-08T02:01:55;22.58;;;9.73;;
39612;SDS011;25303;48.896;13.342;2024-03-08T02:11:59;22.02;;;8.85;;
39612;SDS011;25303;48.896;13.342;2024-03-08T02:22:09;22.60;;;8.73;;
39612;SDS011;25303;48.896;13.342;2024-03-08T02:32:12;26.40;;;10.13;;
39612;SDS011;25303;48.896;13.342;2024-03-08T02:42:16;20.75;;;8.07;;
39612;SDS011;25303;48.896;13.342;2024-03-08T02:52:19;23.58;;;9.10;;
39612;SDS011;25303;48.896;13.342;2024-03-08T03:02:24;23.30;;;8.75;;
39612;SDS011;25303;48.896;13.342;2024-03-08T03:12:28;23.80;;;9.23;;
39612;SDS011;25303;48.896;13.342;2024-03-08T03:22:32;23.98;;;8.85;;
39612;SDS011;25303;48.896;13.342;2024-03-08T03:32:36;24.73;;;9.18;;
39612;SDS011;25303;48.896;13.342;2024-03-08T03:42:49;20.85;;;7.95;;
39612;SDS011;25303;48.896;13.342;2024-03-08T03:52:54;21.05;;;8.38;;
39612;SDS011;25303;48.896;13.342;2024-03-08T04:02:58;23.17;;;8.75;;
39612;SDS011;25303;48.896;13.342;2024-03-08T04:13:03;25.25;;;8.85;;
39612;SDS011;25303;48.896;13.342;2024-03-08T04:23:07;19.50;;;8.00;;
39612;SDS011;25303;48.896;13.342;2024-03-08T04:33:10;23.98;;;8.15;;
39612;SDS011;25303;48.896;13.342;2024-03-08T04:43:16;16.08;;;6.78;;
39612;SDS011;25303;48.896;13.342;2024-03-08T04:53:22;18.58;;;6.90;;
39612;SDS011;25303;48.896;13.342;2024-03-08T05:03:26;16.25;;;6.25;;
39612;SDS011;25303;48.896;13.342;2024-03-08T05:13:30;19.30;;;7.13;;
39612;SDS011;25303;48.896;13.342;2024-03-08T05:23:34;17.25;;;6.40;;
39612;SDS011;25303;48.896;13.342;2024-03-08T05:33:37;18.05;;;7.40;;
39612;SDS011;25303;48.896;13.342;2024-03-08T05:43:42;20.02;;;7.20;;
39612;SDS011;25303;48.896;13.342;2024-03-08T05:53:45;13.70;;;5.57;;
39612;SDS011;25303;48.896;13.342;2024-03-08T06:03:49;14.75;;;5.63;;
39612;SDS011;25303;48.896;13.342;2024-03-08T06:13:52;15.52;;;6.00;;
39612;SDS011;25303;48.896;13.342;2024-03-08T06:24:03;23.27;;;8.13;;
39612;SDS011;25303;48.896;13.342;2024-03-08T06:34:06;18.73;;;7.00;;
39612;SDS011;25303;48.896;13.342;2024-03-08T06:44:12;24.48;;;9.18;;
39612;SDS011;25303;48.896;13.342;2024-03-08T06:54:15;25.35;;;10.02;;
39612;SDS011;25303;48.896;13.342;2024-03-08T07:04:20;25.30;;;10.23;;
39612;SDS011;25303;48.896;13.342;2024-03-08T07:14:27;21.40;;;8.35;;
39612;SDS011;25303;48.896;13.342;2024-03-08T07:24:33;21.88;;;8.73;;
39612;SDS011;25303;48.896;13.342;2024-03-08T07:34:51;17.90;;;7.53;;
39612;SDS011;25303;48.896;13.342;2024-03-08T07:44:56;14.85;;;7.22;;
39612;SDS011;25303;48.896;13.342;2024-03-08T07:54:59;11.88;;;5.32;;
39612;SDS011;25303;48.896;13.342;2024-03-08T08:05:04;12.60;;;5.00;;
39612;SDS011;25303;48.896;13.342;2024-03-08T08:15:07;10.23;;;4.72;;
39612;SDS011;25303;48.896;13.342;2024-03-08T08:25:12;15.18;;;6.30;;
39612;SDS011;25303;48.896;13.342;2024-03-08T08:35:17;11.18;;;5.20;;
39612;SDS011;25303;48.896;13.342;2024-03-08T08:45:23;11.88;;;5.93;;
39612;SDS011;25303;48.896;13.342;2024-03-08T08:55:27;10.20;;;4.88;;
39612;SDS011;25303;48.896;13.342;2024-03-08T09:05:33;10.20;;;5.25;;
39612;SDS011;25303;48.896;13.342;2024-03-08T09:15:39;7.50;;;3.78;;
39612;SDS011;25303;48.896;13.342;2024-03-08T09:25:44;9.23;;;4.28;;
39612;SDS011;25303;48.896;13.342;2024-03-08T09:35:48;8.38;;;3.60;;
39612;SDS011;25303;48.896;13.342;2024-03-08T09:45:54;5.03;;;3.03;;
39612;SDS011;25303;48.896;13.342;2024-03-08T09:55:58;6.78;;;3.50;;
39612;SDS011;25303;48.896;13.342;2024-03-08T10:06:03;4.95;;;2.88;;
39612;SDS011;25303;48.896;13.342;2024-03-08T10:16:07;5.65;;;3.20;;
39612;SDS011;25303;48.896;13.342;2024-03-08T10:26:12;8.05;;;3.80;;
39612;SDS011;25303;48.896;13.342;2024-03-08T10:36:17;5.50;;;3.08;;
39612;SDS011;25303;48.896;13.342;2024-03-08T10:46:26;6.93;;;3.40;;
39612;SDS011;25303;48.896;13.342;2024-03-08T10:56:38;6.97;;;3.35;;
39612;SDS011;25303;48.896;13.342;2024-03-08T11:06:44;5.35;;;2.90;;
39612;SDS011;25303;48.896;13.342;2024-03-08T11:16:48;6.65;;;3.63;;
39612;SDS011;25303;48.896;13.342;2024-03-08T11:26:54;6.47;;;3.50;;
39612;SDS011;25303;48.896;13.342;2024-03-08T11:37:00;9.80;;;4.35;;
39612;SDS011;25303;48.896;13.342;2024-03-08T11:47:09;6.75;;;3.65;;
39612;SDS011;25303;48.896;13.342;2024-03-08T11:57:13;8.45;;;4.68;;
39612;SDS011;25303;48.896;13.342;2024-03-08T12:07:17;9.95;;;5.13;;
39612;SDS011;25303;48.896;13.342;2024-03-08T12:17:20;9.32;;;5.10;;
39612;SDS011;25303;48.896;13.342;2024-03-08T12:27:25;10.38;;;5.30;;
39612;SDS011;25303;48.896;13.342;2024-03-08T12:37:31;9.90;;;5.25;;
39612;SDS011;25303;48.896;13.342;2024-03-08T12:47:35;12.25;;;6.15;;
39612;SDS011;25303;48.896;13.342;2024-03-08T12:57:39;11.35;;;5.55;;
39612;SDS011;25303;48.896;13.342;2024-03-08T13:07:43;10.80;;;5.35;;
39612;SDS011;25303;48.896;13.342;2024-03-08T13:17:48;14.10;;;6.90;;
39612;SDS011;25303;48.896;13.342;2024-03-08T13:27:53;10.40;;;5.68;;
39612;SDS011;25303;48.896;13.342;2024-03-08T13:37:58;10.30;;;5.68;;
39612;SDS011;25303;48.896;13.342;2024-03-08T13:48:06;10.98;;;5.88;;
39612;SDS011;25303;48.896;13.342;2024-03-08T13:58:14;12.57;;;6.40;;
39612;SDS011;25303;48.896;13.342;2024-03-08T14:08:18;10.13;;;5.88;;
39612;SDS011;25303;48.896;13.342;2024-03-08T14:18:21;11.05;;;6.53;;
39612;SDS011;25303;48.896;13.342;2024-03-08T14:28:26;13.82;;;7.30;;
39612;SDS011;25303;48.896;13.342;2024-03-08T14:38:29;11.30;;;6.13;;
39612;SDS011;25303;48.896;13.342;2024-03-08T14:48:34;28.75;;;6.93;;
39612;SDS011;25303;48.896;13.342;2024-03-08T14:58:38;10.40;;;5.28;;
39612;SDS011;25303;48.896;13.342;2024-03-08T15:08:42;11.35;;;5.97;;
39612;SDS011;25303;48.896;13.342;2024-03-08T15:18:45;13.55;;;6.35;;
39612;SDS011;25303;48.896;13.342;2024-03-08T15:28:54;12.55;;;6.75;;
39612;SDS011;25303;48.896;13.342;2024-03-08T15:38:58;12.18;;;5.80;;
39612;SDS011;25303;48.896;13.342;2024-03-08T15:49:03;14.70;;;7.50;;
39612;SDS011;25303;48.896;13.342;2024-03-08T15:59:06;14.25;;;6.50;;
39612;SDS011;25303;48.896;13.342;2024-03-08T16:09:11;12.50;;;6.22;;
39612;SDS011;25303;48.896;13.342;2024-03-08T16:19:17;13.48;;;6.72;;
39612;SDS011;25303;48.896;13.342;2024-03-08T16:29:21;15.43;;;7.95;;
39612;SDS011;25303;48.896;13.342;2024-03-08T16:39:24;13.85;;;7.13;;
39612;SDS011;25303;48.896;13.342;2024-03-08T16:49:31;22.17;;;9.15;;
39612;SDS011;25303;48.896;13.342;2024-03-08T16:59:34;16.50;;;7.55;;
39612;SDS011;25303;48.896;13.342;2024-03-08T17:09:39;19.58;;;8.73;;
39612;SDS011;25303;48.896;13.342;2024-03-08T17:19:42;20.60;;;8.90;;
39612;SDS011;25303;48.896;13.342;2024-03-08T17:29:47;20.40;;;8.30;;
39612;SDS011;25303;48.896;13.342;2024-03-08T17:39:50;17.55;;;7.32;;
39612;SDS011;25303;48.896;13.342;2024-03-08T17:49:58;15.70;;;6.38;;
39612;SDS011;25303;48.896;13.342;2024-03-08T18:00:01;16.77;;;7.53;;
39612;SDS011;25303;48.896;13.342;2024-03-08T18:10:08;18.05;;;7.45;;
39612;SDS011;25303;48.896;13.342;2024-03-08T18:20:18;15.35;;;6.60;;
39612;SDS011;25303;48.896;13.342;2024-03-08T18:30:29;16.17;;;6.82;;
39612;SDS011;25303;48.896;13.342;2024-03-08T18:40:32;16.70;;;7.22;;
39612;SDS011;25303;48.896;13.342;2024-03-08T18:50:37;12.82;;;5.57;;
39612;SDS011;25303;48.896;13.342;2024-03-08T19:00:40;13.60;;;6.00;;
39612;SDS011;25303;48.896;13.342;2024-03-08T19:10:45;15.35;;;6.63;;
39612;SDS011;25303;48.896;13.342;2024-03-08T19:20:49;17.27;;;7.15;;
39612;SDS011;25303;48.896;13.342;2024-03-08T19:30:54;14.75;;;6.40;;
39612;SDS011;25303;48.896;13.342;2024-03-08T19:40:57;14.73;;;6.47;;
39612;SDS011;25303;48.896;13.342;2024-03-08T19:51:02;13.15;;;5.85;;
39612;SDS011;25303;48.896;13.342;2024-03-08T20:01:07;12.07;;;5.35;;
39612;SDS011;25303;48.896;13.342;2024-03-08T20:11:12;13.70;;;5.80;;
39612;SDS011;25303;48.896;13.342;2024-03-08T20:21:16;14.00;;;5.88;;
39612;SDS011;25303;48.896;13.342;2024-03-08T20:31:21;16.10;;;6.32;;
39612;SDS011;25303;48.896;13.342;2024-03-08T20:41:24;14.98;;;6.55;;
39612;SDS011;25303;48.896;13.342;2024-03-08T20:51:29;16.95;;;7.15;;
39612;SDS011;25303;48.896;13.342;2024-03-08T21:01:32;16.50;;;7.53;;
39612;SDS011;25303;48.896;13.342;2024-03-08T21:11:38;14.88;;;6.95;;
39612;SDS011;25303;48.896;13.342;2024-03-08T21:21:42;10.80;;;4.82;;
39612;SDS011;25303;48.896;13.342;2024-03-08T21:31:46;12.55;;;5.95;;
39612;SDS011;25303;48.896;13.342;2024-03-08T21:41:50;9.68;;;4.68;;
39612;SDS011;25303;48.896;13.342;2024-03-08T21:51:57;12.68;;;5.38;;
39612;SDS011;25303;48.896;13.342;2024-03-08T22:02:02;11.85;;;5.53;;
39612;SDS011;25303;48.896;13.342;2024-03-08T22:12:07;12.38;;;6.15;;
39612;SDS011;25303;48.896;13.342;2024-03-08T22:22:11;12.85;;;5.53;;
39612;SDS011;25303;48.896;13.342;2024-03-08T22:32:15;10.77;;;4.90;;
39612;SDS011;25303;48.896;13.342;2024-03-08T22:42:18;11.50;;;5.47;;
39612;SDS011;25303;48.896;13.342;2024-03-08T22:52:22;11.10;;;5.45;;
39612;SDS011;25303;48.896;13.342;2024-03-08T23:02:28;9.65;;;4.25;;
39612;SDS011;25303;48.896;13.342;2024-03-08T23:12:34;9.27;;;4.22;;
39612;SDS011;25303;48.896;13.342;2024-03-08T23:22:38;14.25;;;6.05;;
39612;SDS011;25303;48.896;13.342;2024-03-08T23:32:42;11.13;;;4.60;;
39612;SDS011;25303;48.896;13.342;2024-03-08T23:42:46;10.90;;;4.50;;
39612;SDS011;25303;48.896;13.342;2024-03-08T23:52:54;9.43;;;4.57;;
